sensor_id;sensor_type;location;lat;lon;timestamp;P1;durP1;ratioP1;P2;durP2;ratioP2
47129;SDS011;69689;48.122;11.542;2024-03-08T06:03:32;18.70;;;9.85;;
47129;SDS011;69689;48.122;11.542;2024-03-08T06:05:57;19.55;;;10.45;;
47129;SDS011;69689;48.122;11.542;2024-03-08T06:08:23;19.17;;;9.15;;
47129;SDS011;69689;48.122;11.542;2024-03-08T06:10:48;21.95;;;11.68;;
47129;SDS011;69689;48.122;11.542;2024-03-08T06:13:17;12.02;;;6.95;;
47129;SDS011;69689;48.122;11.542;2024-03-08T06:15:42;22.60;;;11.30;;
47129;SDS011;69689;48.122;11.542;2024-03-08T06:18:08;17.13;;;9.80;;
47129;SDS011;69689;48.122;11.542;2024-03-08T06:20:36;21.30;;;11.13;;
47129;SDS011;69689;48.122;11.542;2024-03-08T06:23:02;15.65;;;10.98;;
47129;SDS011;69689;48.122;11.542;2024-03-08T06:25:27;13.05;;;8.57;;
47129;SDS011;69689;48.122;11.542;2024-03-08T06:27:52;21.50;;;11.30;;
47129;SDS011;69689;48.122;11.542;2024-03-08T06:30:18;22.30;;;10.48;;
47129;SDS011;69689;48.122;11.542;2024-03-08T06:32:43;22.15;;;11.18;;
47129;SDS011;69689;48.122;11.542;2024-03-08T06:35:08;19.33;;;10.95;;
47129;SDS011;69689;48.122;11.542;2024-03-08T06:37:35;19.58;;;11.55;;
47129;SDS011;69689;48.122;11.542;2024-03-08T06:40:01;18.27;;;9.55;;
47129;SDS011;69689;48.122;11.542;2024-03-08T06:42:27;10.85;;;7.90;;
47129;SDS011;69689;48.122;11.542;2024-03-08T06:44:53;16.92;;;10.30;;
47129;SDS011;69689;48.122;11.542;2024-03-08T06:47:21;14.73;;;8.75;;
47129;SDS011;69689;48.122;11.542;2024-03-08T06:49:46;18.40;;;9.43;;
47129;SDS011;69689;48.122;11.542;2024-03-08T06:52:11;17.38;;;9.98;;
47129;SDS011;69689;48.122;11.542;2024-03-08T06:54:37;19.20;;;10.25;;
47129;SDS011;69689;48.122;11.542;2024-03-08T06:57:03;17.38;;;10.40;;
47129;SDS011;69689;48.122;11.542;2024-03-08T06:59:30;19.67;;;9.82;;
47129;SDS011;69689;48.122;11.542;2024-03-08T07:02:00;15.93;;;9.70;;
47129;SDS011;69689;48.122;11.542;2024-03-08T07:04:26;14.57;;;7.88;;
47129;SDS011;69689;48.122;11.542;2024-03-08T07:06:57;16.60;;;8.95;;
47129;SDS011;69689;48.122;11.542;2024-03-08T07:09:26;20.25;;;9.55;;
47129;SDS011;69689;48.122;11.542;2024-03-08T07:11:51;17.30;;;9.20;;
47129;SDS011;69689;48.122;11.542;2024-03-08T07:14:21;17.13;;;9.05;;
47129;SDS011;69689;48.122;11.542;2024-03-08T07:16:47;17.80;;;10.18;;
47129;SDS011;69689;48.122;11.542;2024-03-08T07:19:12;19.08;;;9.52;;
47129;SDS011;69689;48.122;11.542;2024-03-08T07:21:37;17.58;;;9.65;;
47129;SDS011;69689;48.122;11.542;2024-03-08T07:24:03;14.88;;;10.82;;
47129;SDS011;69689;48.122;11.542;2024-03-08T07:26:43;17.33;;;9.93;;
47129;SDS011;69689;48.122;11.542;2024-03-08T07:29:09;15.75;;;10.88;;
47129;SDS011;69689;48.122;11.542;2024-03-08T07:31:34;20.42;;;10.95;;
47129;SDS011;69689;48.122;11.542;2024-03-08T07:34:15;16.17;;;8.63;;
47129;SDS011;69689;48.122;11.542;2024-03-08T07:36:41;18.42;;;10.63;;
47129;SDS011;69689;48.122;11.542;2024-03-08T07:39:06;19.95;;;10.32;;
47129;SDS011;69689;48.122;11.542;2024-03-08T07:41:36;22.30;;;8.70;;
47129;SDS011;69689;48.122;11.542;2024-03-08T07:44:01;21.48;;;10.73;;
47129;SDS011;69689;48.122;11.542;2024-03-08T07:46:28;16.73;;;10.30;;
47129;SDS011;69689;48.122;11.542;2024-03-08T07:48:54;16.27;;;9.73;;
47129;SDS011;69689;48.122;11.542;2024-03-08T07:51:19;20.40;;;11.43;;
47129;SDS011;69689;48.122;11.542;2024-03-08T07:53:45;18.92;;;10.38;;
47129;SDS011;69689;48.122;11.542;2024-03-08T07:56:11;18.73;;;10.38;;
47129;SDS011;69689;48.122;11.542;2024-03-08T07:58:38;18.67;;;11.45;;
47129;SDS011;69689;48.122;11.542;2024-03-08T08:01:05;20.55;;;9.88;;
47129;SDS011;69689;48.122;11.542;2024-03-08T08:03:31;18.75;;;11.32;;
47129;SDS011;69689;48.122;11.542;2024-03-08T08:05:56;17.88;;;9.98;;
47129;SDS011;69689;48.122;11.542;2024-03-08T08:08:22;16.98;;;10.90;;
47129;SDS011;69689;48.122;11.542;2024-03-08T08:10:47;19.77;;;11.38;;
47129;SDS011;69689;48.122;11.542;2024-03-08T08:13:12;13.38;;;7.88;;
47129;SDS011;69689;48.122;11.542;2024-03-08T08:15:38;17.88;;;9.07;;
47129;SDS011;69689;48.122;11.542;2024-03-08T08:18:03;18.45;;;9.73;;
47129;SDS011;69689;48.122;11.542;2024-03-08T08:20:30;16.50;;;9.30;;
47129;SDS011;69689;48.122;11.542;2024-03-08T08:22:56;13.20;;;8.40;;
47129;SDS011;69689;48.122;11.542;2024-03-08T08:25:21;18.70;;;9.60;;
47129;SDS011;69689;48.122;11.542;2024-03-08T08:27:49;19.10;;;10.13;;
47129;SDS011;69689;48.122;11.542;2024-03-08T08:30:14;15.55;;;9.38;;
47129;SDS011;69689;48.122;11.542;2024-03-08T08:32:40;14.48;;;8.63;;
47129;SDS011;69689;48.122;11.542;2024-03-08T08:35:07;17.70;;;10.23;;
47129;SDS011;69689;48.122;11.542;2024-03-08T08:37:34;15.27;;;9.60;;
47129;SDS011;69689;48.122;11.542;2024-03-08T08:40:02;18.58;;;10.30;;
47129;SDS011;69689;48.122;11.542;2024-03-08T08:42:34;18.23;;;9.88;;
47129;SDS011;69689;48.122;11.542;2024-03-08T08:45:00;17.15;;;9.57;;
47129;SDS011;69689;48.122;11.542;2024-03-08T08:47:26;19.92;;;9.55;;
47129;SDS011;69689;48.122;11.542;2024-03-08T08:49:52;17.65;;;10.25;;
47129;SDS011;69689;48.122;11.542;2024-03-08T08:52:19;16.67;;;10.93;;
47129;SDS011;69689;48.122;11.542;2024-03-08T08:54:44;20.40;;;9.98;;
47129;SDS011;69689;48.122;11.542;2024-03-08T08:57:10;13.88;;;8.13;;
47129;SDS011;69689;48.122;11.542;2024-03-08T08:59:35;14.85;;;10.00;;
47129;SDS011;69689;48.122;11.542;2024-03-08T09:02:04;17.70;;;10.70;;
47129;SDS011;69689;48.122;11.542;2024-03-08T09:04:29;15.57;;;10.10;;
47129;SDS011;69689;48.122;11.542;2024-03-08T09:06:56;14.40;;;8.45;;
47129;SDS011;69689;48.122;11.542;2024-03-08T09:09:22;17.83;;;10.15;;
47129;SDS011;69689;48.122;11.542;2024-03-08T09:11:47;15.40;;;8.60;;
47129;SDS011;69689;48.122;11.542;2024-03-08T09:14:14;15.70;;;9.25;;
47129;SDS011;69689;48.122;11.542;2024-03-08T09:16:39;17.67;;;9.70;;
47129;SDS011;69689;48.122;11.542;2024-03-08T09:19:05;17.45;;;9.45;;
47129;SDS011;69689;48.122;11.542;2024-03-08T09:21:31;16.73;;;9.40;;
47129;SDS011;69689;48.122;11.542;2024-03-08T09:23:57;13.50;;;9.60;;
47129;SDS011;69689;48.122;11.542;2024-03-08T09:26:23;15.88;;;10.32;;
47129;SDS011;69689;48.122;11.542;2024-03-08T09:28:49;16.70;;;9.02;;
47129;SDS011;69689;48.122;11.542;2024-03-08T09:31:14;11.52;;;8.65;;
47129;SDS011;69689;48.122;11.542;2024-03-08T09:33:40;14.32;;;9.93;;
47129;SDS011;69689;48.122;11.542;2024-03-08T09:36:07;13.48;;;9.15;;
47129;SDS011;69689;48.122;11.542;2024-03-08T09:38:33;15.52;;;10.63;;
47129;SDS011;69689;48.122;11.542;2024-03-08T09:40:59;15.50;;;9.88;;
47129;SDS011;69689;48.122;11.542;2024-03-08T09:43:26;15.70;;;10.40;;
47129;SDS011;69689;48.122;11.542;2024-03-08T09:46:01;14.30;;;9.85;;
47129;SDS011;69689;48.122;11.542;2024-03-08T09:48:28;14.68;;;9.90;;
47129;SDS011;69689;48.122;11.542;2024-03-08T09:50:54;15.90;;;11.80;;
47129;SDS011;69689;48.122;11.542;2024-03-08T09:53:20;19.35;;;11.75;;
47129;SDS011;69689;48.122;11.542;2024-03-08T09:55:47;15.38;;;10.35;;
47129;SDS011;69689;48.122;11.542;2024-03-08T09:58:14;16.85;;;11.10;;
47129;SDS011;69689;48.122;11.542;2024-03-08T10:00:46;15.98;;;10.48;;
47129;SDS011;69689;48.122;11.542;2024-03-08T10:03:13;16.17;;;11.75;;
47129;SDS011;69689;48.122;11.542;2024-03-08T10:05:42;15.13;;;11.43;;
47129;SDS011;69689;48.122;11.542;2024-03-08T10:08:09;15.18;;;11.18;;
47129;SDS011;69689;48.122;11.542;2024-03-08T10:10:36;15.80;;;11.65;;
47129;SDS011;69689;48.122;11.542;2024-03-08T10:13:05;16.85;;;12.05;;
47129;SDS011;69689;48.122;11.542;2024-03-08T10:15:31;16.10;;;12.15;;
47129;SDS011;69689;48.122;11.542;2024-03-08T10:18:01;14.73;;;11.80;;
47129;SDS011;69689;48.122;11.542;2024-03-08T10:20:27;13.90;;;11.18;;
47129;SDS011;69689;48.122;11.542;2024-03-08T10:22:54;15.10;;;12.00;;
47129;SDS011;69689;48.122;11.542;2024-03-08T10:25:19;14.90;;;11.27;;
47129;SDS011;69689;48.122;11.542;2024-03-08T10:27:45;14.52;;;10.57;;
47129;SDS011;69689;48.122;11.542;2024-03-08T10:30:11;15.20;;;11.50;;
47129;SDS011;69689;48.122;11.542;2024-03-08T10:32:39;14.07;;;12.13;;
47129;SDS011;69689;48.122;11.542;2024-03-08T10:35:06;14.05;;;10.98;;
47129;SDS011;69689;48.122;11.542;2024-03-08T10:37:37;14.65;;;10.15;;
47129;SDS011;69689;48.122;11.542;2024-03-08T10:40:12;12.75;;;10.32;;
47129;SDS011;69689;48.122;11.542;2024-03-08T10:50:53;12.55;;;10.45;;
47129;SDS011;69689;48.122;11.542;2024-03-08T10:53:18;11.73;;;9.57;;
47129;SDS011;69689;48.122;11.542;2024-03-08T10:55:47;15.73;;;10.10;;
47129;SDS011;69689;48.122;11.542;2024-03-08T10:58:14;12.70;;;10.25;;
47129;SDS011;69689;48.122;11.542;2024-03-08T11:00:41;12.75;;;10.75;;
47129;SDS011;69689;48.122;11.542;2024-03-08T11:03:06;10.77;;;9.23;;
47129;SDS011;69689;48.122;11.542;2024-03-08T11:05:41;10.68;;;9.35;;
47129;SDS011;69689;48.122;11.542;2024-03-08T11:10:46;13.10;;;10.13;;
47129;SDS011;69689;48.122;11.542;2024-03-08T11:16:01;14.45;;;10.75;;
47129;SDS011;69689;48.122;11.542;2024-03-08T11:20:56;11.15;;;9.40;;
47129;SDS011;69689;48.122;11.542;2024-03-08T11:23:22;15.07;;;9.57;;
47129;SDS011;69689;48.122;11.542;2024-03-08T11:25:50;12.23;;;9.60;;
47129;SDS011;69689;48.122;11.542;2024-03-08T11:28:20;11.10;;;9.70;;
47129;SDS011;69689;48.122;11.542;2024-03-08T11:33:31;12.43;;;9.93;;
47129;SDS011;69689;48.122;11.542;2024-03-08T11:36:03;11.55;;;9.63;;
47129;SDS011;69689;48.122;11.542;2024-03-08T11:38:45;12.70;;;9.68;;
47129;SDS011;69689;48.122;11.542;2024-03-08T11:41:13;10.90;;;9.77;;
47129;SDS011;69689;48.122;11.542;2024-03-08T11:43:45;10.85;;;9.20;;
47129;SDS011;69689;48.122;11.542;2024-03-08T11:46:11;10.93;;;9.75;;
47129;SDS011;69689;48.122;11.542;2024-03-08T11:48:40;10.82;;;9.57;;
47129;SDS011;69689;48.122;11.542;2024-03-08T11:51:09;10.90;;;9.70;;
47129;SDS011;69689;48.122;11.542;2024-03-08T11:53:36;11.23;;;9.32;;
47129;SDS011;69689;48.122;11.542;2024-03-08T11:58:37;12.95;;;10.07;;
47129;SDS011;69689;48.122;11.542;2024-03-08T12:01:06;11.73;;;9.98;;
47129;SDS011;69689;48.122;11.542;2024-03-08T12:03:37;10.95;;;9.77;;
47129;SDS011;69689;48.122;11.542;2024-03-08T12:06:03;11.55;;;9.65;;
47129;SDS011;69689;48.122;11.542;2024-03-08T12:08:31;12.13;;;10.32;;
47129;SDS011;69689;48.122;11.542;2024-03-08T12:10:57;11.25;;;10.05;;
47129;SDS011;69689;48.122;11.542;2024-03-08T12:13:27;11.90;;;10.30;;
47129;SDS011;69689;48.122;11.542;2024-03-08T12:15:55;12.35;;;10.45;;
47129;SDS011;69689;48.122;11.542;2024-03-08T12:18:23;11.20;;;9.38;;
47129;SDS011;69689;48.122;11.542;2024-03-08T12:20:49;11.20;;;10.00;;
47129;SDS011;69689;48.122;11.542;2024-03-08T12:23:15;11.48;;;10.23;;
47129;SDS011;69689;48.122;11.542;2024-03-08T12:25:41;11.70;;;9.73;;
47129;SDS011;69689;48.122;11.542;2024-03-08T12:28:10;12.15;;;10.25;;
47129;SDS011;69689;48.122;11.542;2024-03-08T12:30:50;11.27;;;10.07;;
47129;SDS011;69689;48.122;11.542;2024-03-08T12:33:17;10.90;;;9.57;;
47129;SDS011;69689;48.122;11.542;2024-03-08T12:35:50;13.07;;;9.80;;
47129;SDS011;69689;48.122;11.542;2024-03-08T12:38:20;10.30;;;9.18;;
47129;SDS011;69689;48.122;11.542;2024-03-08T12:40:49;10.55;;;9.25;;
47129;SDS011;69689;48.122;11.542;2024-03-08T12:43:15;12.40;;;9.73;;
47129;SDS011;69689;48.122;11.542;2024-03-08T12:45:41;12.32;;;9.55;;
47129;SDS011;69689;48.122;11.542;2024-03-08T12:48:12;11.32;;;9.40;;
47129;SDS011;69689;48.122;11.542;2024-03-08T12:50:39;12.88;;;10.27;;
47129;SDS011;69689;48.122;11.542;2024-03-08T12:53:04;11.67;;;9.57;;
47129;SDS011;69689;48.122;11.542;2024-03-08T12:55:29;13.27;;;10.13;;
47129;SDS011;69689;48.122;11.542;2024-03-08T12:57:56;11.33;;;9.13;;
47129;SDS011;69689;48.122;11.542;2024-03-08T13:00:23;13.02;;;10.48;;
47129;SDS011;69689;48.122;11.542;2024-03-08T13:02:49;11.63;;;9.57;;
47129;SDS011;69689;48.122;11.542;2024-03-08T13:05:16;11.32;;;9.73;;
47129;SDS011;69689;48.122;11.542;2024-03-08T13:07:42;10.68;;;9.48;;
47129;SDS011;69689;48.122;11.542;2024-03-08T13:10:11;10.80;;;9.48;;
47129;SDS011;69689;48.122;11.542;2024-03-08T13:12:43;11.40;;;9.55;;
47129;SDS011;69689;48.122;11.542;2024-03-08T13:15:09;10.97;;;9.87;;
47129;SDS011;69689;48.122;11.542;2024-03-08T13:17:44;11.43;;;10.23;;
47129;SDS011;69689;48.122;11.542;2024-03-08T13:20:11;11.23;;;10.07;;
47129;SDS011;69689;48.122;11.542;2024-03-08T13:22:41;12.10;;;10.75;;
47129;SDS011;69689;48.122;11.542;2024-03-08T13:25:07;11.73;;;10.20;;
47129;SDS011;69689;48.122;11.542;2024-03-08T13:27:38;12.30;;;10.55;;
47129;SDS011;69689;48.122;11.542;2024-03-08T13:30:10;10.43;;;9.32;;
47129;SDS011;69689;48.122;11.542;2024-03-08T13:32:39;11.60;;;9.30;;
47129;SDS011;69689;48.122;11.542;2024-03-08T13:35:05;10.25;;;8.68;;
47129;SDS011;69689;48.122;11.542;2024-03-08T13:37:37;11.07;;;9.13;;
47129;SDS011;69689;48.122;11.542;2024-03-08T13:40:06;10.73;;;8.88;;
47129;SDS011;69689;48.122;11.542;2024-03-08T13:42:35;10.13;;;8.98;;
47129;SDS011;69689;48.122;11.542;2024-03-08T13:45:03;11.32;;;9.10;;
47129;SDS011;69689;48.122;11.542;2024-03-08T13:47:29;11.40;;;9.98;;
47129;SDS011;69689;48.122;11.542;2024-03-08T13:49:55;13.35;;;9.38;;
47129;SDS011;69689;48.122;11.542;2024-03-08T13:52:21;11.82;;;10.48;;
47129;SDS011;69689;48.122;11.542;2024-03-08T13:54:46;12.03;;;9.90;;
47129;SDS011;69689;48.122;11.542;2024-03-08T13:57:12;11.98;;;9.82;;
47129;SDS011;69689;48.122;11.542;2024-03-08T13:59:37;11.60;;;10.30;;
47129;SDS011;69689;48.122;11.542;2024-03-08T14:02:03;11.23;;;9.85;;
47129;SDS011;69689;48.122;11.542;2024-03-08T14:04:29;11.82;;;9.77;;
47129;SDS011;69689;48.122;11.542;2024-03-08T14:06:54;11.13;;;9.80;;
47129;SDS011;69689;48.122;11.542;2024-03-08T14:09:26;9.82;;;8.73;;
47129;SDS011;69689;48.122;11.542;2024-03-08T14:11:54;11.93;;;10.50;;
47129;SDS011;69689;48.122;11.542;2024-03-08T14:14:21;11.93;;;10.68;;
47129;SDS011;69689;48.122;11.542;2024-03-08T14:16:48;12.15;;;10.70;;
47129;SDS011;69689;48.122;11.542;2024-03-08T14:19:14;11.52;;;10.15;;
47129;SDS011;69689;48.122;11.542;2024-03-08T14:21:40;11.80;;;9.68;;
47129;SDS011;69689;48.122;11.542;2024-03-08T14:24:07;11.93;;;10.40;;
47129;SDS011;69689;48.122;11.542;2024-03-08T14:26:32;11.18;;;9.63;;
47129;SDS011;69689;48.122;11.542;2024-03-08T14:28:59;11.63;;;10.18;;
47129;SDS011;69689;48.122;11.542;2024-03-08T14:31:24;11.20;;;9.95;;
47129;SDS011;69689;48.122;11.542;2024-03-08T14:33:50;11.13;;;9.68;;
47129;SDS011;69689;48.122;11.542;2024-03-08T14:36:17;11.73;;;9.48;;
47129;SDS011;69689;48.122;11.542;2024-03-08T14:38:44;12.05;;;10.85;;
47129;SDS011;69689;48.122;11.542;2024-03-08T14:41:12;12.07;;;10.77;;
47129;SDS011;69689;48.122;11.542;2024-03-08T14:43:37;12.50;;;10.77;;
47129;SDS011;69689;48.122;11.542;2024-03-08T14:46:03;11.93;;;10.43;;
47129;SDS011;69689;48.122;11.542;2024-03-08T14:48:28;11.73;;;10.32;;
47129;SDS011;69689;48.122;11.542;2024-03-08T14:50:54;12.25;;;10.95;;
47129;SDS011;69689;48.122;11.542;2024-03-08T14:53:19;11.93;;;10.18;;
47129;SDS011;69689;48.122;11.542;2024-03-08T14:55:44;12.00;;;10.70;;
47129;SDS011;69689;48.122;11.542;2024-03-08T14:58:12;11.95;;;10.38;;
47129;SDS011;69689;48.122;11.542;2024-03-08T15:00:38;10.80;;;9.70;;
47129;SDS011;69689;48.122;11.542;2024-03-08T15:03:05;12.80;;;10.18;;
47129;SDS011;69689;48.122;11.542;2024-03-08T15:05:32;11.98;;;9.48;;
47129;SDS011;69689;48.122;11.542;2024-03-08T15:08:02;11.10;;;9.15;;
47129;SDS011;69689;48.122;11.542;2024-03-08T15:10:34;11.18;;;9.43;;
47129;SDS011;69689;48.122;11.542;2024-03-08T15:13:00;12.25;;;10.43;;
47129;SDS011;69689;48.122;11.542;2024-03-08T15:15:27;13.05;;;9.68;;
47129;SDS011;69689;48.122;11.542;2024-03-08T15:17:54;11.73;;;9.88;;
47129;SDS011;69689;48.122;11.542;2024-03-08T15:20:25;11.48;;;9.15;;
47129;SDS011;69689;48.122;11.542;2024-03-08T15:22:54;11.77;;;9.50;;
47129;SDS011;69689;48.122;11.542;2024-03-08T15:25:21;12.02;;;9.95;;
47129;SDS011;69689;48.122;11.542;2024-03-08T15:27:51;12.23;;;9.95;;
47129;SDS011;69689;48.122;11.542;2024-03-08T15:30:20;13.48;;;10.25;;
47129;SDS011;69689;48.122;11.542;2024-03-08T15:32:51;12.23;;;9.80;;
47129;SDS011;69689;48.122;11.542;2024-03-08T15:35:21;11.85;;;9.55;;
47129;SDS011;69689;48.122;11.542;2024-03-08T15:37:47;12.07;;;9.55;;
47129;SDS011;69689;48.122;11.542;2024-03-08T15:40:12;11.60;;;8.95;;
47129;SDS011;69689;48.122;11.542;2024-03-08T15:42:55;12.43;;;8.85;;
47129;SDS011;69689;48.122;11.542;2024-03-08T15:45:24;11.88;;;9.50;;
47129;SDS011;69689;48.122;11.542;2024-03-08T15:47:51;12.25;;;9.07;;
47129;SDS011;69689;48.122;11.542;2024-03-08T15:50:17;13.20;;;9.20;;
47129;SDS011;69689;48.122;11.542;2024-03-08T15:52:43;12.43;;;9.00;;
47129;SDS011;69689;48.122;11.542;2024-03-08T15:55:13;12.52;;;8.90;;
47129;SDS011;69689;48.122;11.542;2024-03-08T15:57:44;12.38;;;9.20;;
47129;SDS011;69689;48.122;11.542;2024-03-08T16:00:12;12.18;;;8.73;;
47129;SDS011;69689;48.122;11.542;2024-03-08T16:02:40;16.65;;;9.52;;
47129;SDS011;69689;48.122;11.542;2024-03-08T16:05:06;12.73;;;8.93;;
47129;SDS011;69689;48.122;11.542;2024-03-08T16:07:32;15.57;;;8.93;;
47129;SDS011;69689;48.122;11.542;2024-03-08T16:09:57;14.70;;;9.25;;
47129;SDS011;69689;48.122;11.542;2024-03-08T16:12:22;14.48;;;8.63;;
47129;SDS011;69689;48.122;11.542;2024-03-08T16:14:48;14.25;;;8.55;;
47129;SDS011;69689;48.122;11.542;2024-03-08T16:17:13;13.55;;;7.95;;
47129;SDS011;69689;48.122;11.542;2024-03-08T16:19:39;15.15;;;7.97;;
47129;SDS011;69689;48.122;11.542;2024-03-08T16:22:06;13.75;;;7.80;;
47129;SDS011;69689;48.122;11.542;2024-03-08T16:24:31;16.50;;;7.90;;
47129;SDS011;69689;48.122;11.542;2024-03-08T16:26:58;14.73;;;8.20;;
47129;SDS011;69689;48.122;11.542;2024-03-08T16:29:23;15.63;;;8.48;;
47129;SDS011;69689;48.122;11.542;2024-03-08T16:31:48;13.25;;;7.05;;
47129;SDS011;69689;48.122;11.542;2024-03-08T16:34:14;15.45;;;8.52;;
47129;SDS011;69689;48.122;11.542;2024-03-08T16:36:41;14.65;;;8.10;;
47129;SDS011;69689;48.122;11.542;2024-03-08T16:39:06;16.15;;;8.55;;
47129;SDS011;69689;48.122;11.542;2024-03-08T16:41:34;13.25;;;7.70;;
47129;SDS011;69689;48.122;11.542;2024-03-08T16:44:00;15.68;;;7.93;;
47129;SDS011;69689;48.122;11.542;2024-03-08T16:46:26;14.82;;;7.35;;
47129;SDS011;69689;48.122;11.542;2024-03-08T16:48:52;14.63;;;7.93;;
47129;SDS011;69689;48.122;11.542;2024-03-08T16:51:17;15.10;;;7.47;;
47129;SDS011;69689;48.122;11.542;2024-03-08T16:53:43;15.07;;;8.23;;
47129;SDS011;69689;48.122;11.542;2024-03-08T16:56:08;15.40;;;8.57;;
47129;SDS011;69689;48.122;11.542;2024-03-08T16:58:37;15.90;;;7.60;;
47129;SDS011;69689;48.122;11.542;2024-03-08T17:01:03;16.85;;;9.13;;
47129;SDS011;69689;48.122;11.542;2024-03-08T17:03:28;17.17;;;8.77;;
47129;SDS011;69689;48.122;11.542;2024-03-08T17:05:54;16.55;;;9.20;;
47129;SDS011;69689;48.122;11.542;2024-03-08T17:08:20;14.98;;;7.93;;
47129;SDS011;69689;48.122;11.542;2024-03-08T17:10:46;10.98;;;6.80;;
47129;SDS011;69689;48.122;11.542;2024-03-08T17:13:13;13.32;;;7.75;;
47129;SDS011;69689;48.122;11.542;2024-03-08T17:15:40;16.83;;;9.45;;
47129;SDS011;69689;48.122;11.542;2024-03-08T17:18:07;15.98;;;9.18;;
47129;SDS011;69689;48.122;11.542;2024-03-08T17:20:33;18.05;;;9.23;;
47129;SDS011;69689;48.122;11.542;2024-03-08T17:23:02;17.55;;;8.27;;
47129;SDS011;69689;48.122;11.542;2024-03-08T17:25:30;16.75;;;9.00;;
47129;SDS011;69689;48.122;11.542;2024-03-08T17:27:56;17.00;;;8.35;;
47129;SDS011;69689;48.122;11.542;2024-03-08T17:30:24;14.40;;;7.75;;
47129;SDS011;69689;48.122;11.542;2024-03-08T17:32:57;17.02;;;8.38;;
47129;SDS011;69689;48.122;11.542;2024-03-08T17:35:29;17.63;;;8.88;;
47129;SDS011;69689;48.122;11.542;2024-03-08T17:37:57;15.00;;;8.82;;
47129;SDS011;69689;48.122;11.542;2024-03-08T17:40:23;14.32;;;7.85;;
47129;SDS011;69689;48.122;11.542;2024-03-08T17:42:54;18.20;;;9.07;;
47129;SDS011;69689;48.122;11.542;2024-03-08T17:45:21;19.15;;;9.55;;
47129;SDS011;69689;48.122;11.542;2024-03-08T17:47:48;17.88;;;9.48;;
47129;SDS011;69689;48.122;11.542;2024-03-08T17:50:15;16.20;;;9.43;;
47129;SDS011;69689;48.122;11.542;2024-03-08T17:52:43;17.80;;;9.50;;
47129;SDS011;69689;48.122;11.542;2024-03-08T17:55:09;18.48;;;8.23;;
47129;SDS011;69689;48.122;11.542;2024-03-08T17:57:38;19.48;;;9.35;;
47129;SDS011;69689;48.122;11.542;2024-03-08T18:00:06;17.20;;;8.25;;
47129;SDS011;69689;48.122;11.542;2024-03-08T18:02:43;16.13;;;9.38;;
47129;SDS011;69689;48.122;11.542;2024-03-08T18:05:10;14.55;;;8.38;;
47129;SDS011;69689;48.122;11.542;2024-03-08T18:07:38;15.52;;;8.38;;
47129;SDS011;69689;48.122;11.542;2024-03-08T18:10:04;18.08;;;9.45;;
47129;SDS011;69689;48.122;11.542;2024-03-08T18:12:30;19.38;;;9.55;;
47129;SDS011;69689;48.122;11.542;2024-03-08T18:14:57;20.83;;;10.13;;
47129;SDS011;69689;48.122;11.542;2024-03-08T18:17:23;17.75;;;9.90;;
47129;SDS011;69689;48.122;11.542;2024-03-08T18:19:48;16.13;;;9.48;;
47129;SDS011;69689;48.122;11.542;2024-03-08T18:22:14;20.20;;;9.68;;
47129;SDS011;69689;48.122;11.542;2024-03-08T18:24:40;20.20;;;10.38;;
47129;SDS011;69689;48.122;11.542;2024-03-08T18:27:06;21.25;;;9.98;;
47129;SDS011;69689;48.122;11.542;2024-03-08T18:29:33;22.23;;;10.93;;
47129;SDS011;69689;48.122;11.542;2024-03-08T18:31:59;18.85;;;8.98;;
47129;SDS011;69689;48.122;11.542;2024-03-08T18:34:26;18.65;;;10.23;;
47129;SDS011;69689;48.122;11.542;2024-03-08T18:36:51;18.15;;;9.90;;
47129;SDS011;69689;48.122;11.542;2024-03-08T18:39:16;18.40;;;8.65;;
47129;SDS011;69689;48.122;11.542;2024-03-08T18:41:43;18.10;;;8.70;;
47129;SDS011;69689;48.122;11.542;2024-03-08T18:44:09;22.60;;;10.23;;
47129;SDS011;69689;48.122;11.542;2024-03-08T18:46:34;20.25;;;10.57;;
47129;SDS011;69689;48.122;11.542;2024-03-08T18:49:00;19.02;;;9.32;;
47129;SDS011;69689;48.122;11.542;2024-03-08T18:51:26;17.25;;;10.10;;
47129;SDS011;69689;48.122;11.542;2024-03-08T18:53:51;18.42;;;9.27;;
47129;SDS011;69689;48.122;11.542;2024-03-08T18:56:17;19.13;;;9.35;;
47129;SDS011;69689;48.122;11.542;2024-03-08T18:58:43;18.67;;;9.85;;
47129;SDS011;69689;48.122;11.542;2024-03-08T19:01:09;20.48;;;10.48;;
47129;SDS011;69689;48.122;11.542;2024-03-08T19:03:34;18.98;;;9.25;;
47129;SDS011;69689;48.122;11.542;2024-03-08T19:06:02;18.30;;;10.10;;
47129;SDS011;69689;48.122;11.542;2024-03-08T19:08:28;20.48;;;9.73;;
47129;SDS011;69689;48.122;11.542;2024-03-08T19:10:57;16.08;;;9.38;;
47129;SDS011;69689;48.122;11.542;2024-03-08T19:13:23;17.80;;;9.43;;
47129;SDS011;69689;48.122;11.542;2024-03-08T19:15:48;17.77;;;9.18;;
47129;SDS011;69689;48.122;11.542;2024-03-08T19:18:16;20.63;;;8.82;;
47129;SDS011;69689;48.122;11.542;2024-03-08T19:20:45;17.00;;;9.23;;
47129;SDS011;69689;48.122;11.542;2024-03-08T19:23:10;16.90;;;9.13;;
47129;SDS011;69689;48.122;11.542;2024-03-08T19:25:37;18.40;;;10.05;;
47129;SDS011;69689;48.122;11.542;2024-03-08T19:28:07;15.60;;;8.32;;
47129;SDS011;69689;48.122;11.542;2024-03-08T19:30:34;18.60;;;7.95;;
47129;SDS011;69689;48.122;11.542;2024-03-08T19:33:01;19.00;;;10.05;;
47129;SDS011;69689;48.122;11.542;2024-03-08T19:35:28;18.05;;;10.15;;
47129;SDS011;69689;48.122;11.542;2024-03-08T19:37:55;15.95;;;7.97;;
47129;SDS011;69689;48.122;11.542;2024-03-08T19:40:24;19.67;;;9.88;;
47129;SDS011;69689;48.122;11.542;2024-03-08T19:42:59;19.77;;;8.88;;
47129;SDS011;69689;48.122;11.542;2024-03-08T19:45:26;15.63;;;7.68;;
47129;SDS011;69689;48.122;11.542;2024-03-08T19:47:56;17.17;;;9.00;;
47129;SDS011;69689;48.122;11.542;2024-03-08T19:50:24;19.13;;;9.20;;
47129;SDS011;69689;48.122;11.542;2024-03-08T19:52:51;17.83;;;9.07;;
47129;SDS011;69689;48.122;11.542;2024-03-08T19:55:18;15.93;;;8.90;;
47129;SDS011;69689;48.122;11.542;2024-03-08T19:57:45;14.25;;;8.05;;
47129;SDS011;69689;48.122;11.542;2024-03-08T20:00:16;14.88;;;8.20;;
